createdAt,value
2022-09-17T08:42:17.559Z,99692.88
2022-09-17T08:46:06.024Z,99697.70
2022-09-17T08:50:17.816Z,99704.73
2022-09-17T08:54:36.555Z,99706.19
2022-09-17T08:58:32.984Z,99697.85
2022-09-17T09:02:24.100Z,99698.78
2022-09-17T09:06:14.863Z,99704.42
2022-09-17T09:10:06.481Z,99708.38
2022-09-17T09:13:55.178Z,99706.52
2022-09-17T09:17:43.935Z,99712.80
2022-09-17T09:21:34.661Z,99715.92
2022-09-17T09:25:22.648Z,99723.56
2022-09-17T09:29:16.107Z,99726.76
2022-09-17T09:33:13.532Z,99722.69
2022-09-17T09:37:01.386Z,99727.36
2022-09-17T09:40:47.280Z,99731.54
2022-09-17T09:44:37.757Z,99741.06
2022-09-17T09:48:34.710Z,99739.48
2022-09-17T09:52:22.892Z,99736.59
2022-09-17T09:56:23.941Z,99736.77
2022-09-17T10:00:12.409Z,99733.76
2022-09-17T10:03:55.437Z,99736.50
2022-09-17T10:07:45.944Z,99736.89
2022-09-17T10:11:39.224Z,99740.91
2022-09-17T10:15:27.848Z,99745.20
2022-09-17T10:19:15.889Z,99751.85
2022-09-17T10:23:21.501Z,99753.44
2022-09-17T10:27:09.244Z,99752.39
2022-09-17T10:31:07.842Z,99751.61
2022-09-17T10:35:02.611Z,99760.14
2022-09-17T10:38:50.271Z,99783.38
2022-09-17T10:42:38.245Z,99786.90
2022-09-17T10:46:27.760Z,99785.56
2022-09-17T10:50:21.852Z,99780.10
2022-09-17T10:54:11.637Z,99773.85
2022-09-17T10:58:00.030Z,99772.43
2022-09-17T11:01:06.162Z,99775.70
2022-09-17T11:05:08.117Z,99778.97
2022-09-17T11:08:58.698Z,99773.16
2022-09-17T11:12:40.970Z,99766.66
2022-09-17T11:16:34.672Z,99762.80
2022-09-17T11:20:31.204Z,99754.62
2022-09-17T11:24:24.219Z,99757.34
2022-09-17T11:28:06.794Z,99761.30
2022-09-17T11:32:02.210Z,99762.48
2022-09-17T11:35:41.877Z,99764.92
2022-09-17T11:39:27.890Z,99759.94
2022-09-17T11:43:17.363Z,99754.32
2022-09-17T11:47:13.009Z,99748.30
2022-09-17T11:50:54.777Z,99748.91
2022-09-17T11:54:48.604Z,99753.05
2022-09-17T11:58:27.883Z,99742.15
2022-09-17T12:02:21.860Z,99735.67
2022-09-17T12:06:11.640Z,99734.37
2022-09-17T12:09:53.848Z,99734.91
2022-09-17T12:13:39.784Z,99733.31
2022-09-17T12:17:28.076Z,99721.56
2022-09-17T12:21:16.622Z,99717.61
2022-09-17T12:25:07.310Z,99711.55
2022-09-17T12:28:57.589Z,99709.27
2022-09-17T12:32:43.269Z,99703.71
2022-09-17T12:36:10.362Z,99698.69
2022-09-17T12:40:17.571Z,99692.40
2022-09-17T12:44:27.842Z,99689.91
2022-09-17T12:48:28.240Z,99691.19
2022-09-17T12:52:26.645Z,99691.15
2022-09-17T12:56:20.564Z,99689.94
2022-09-17T13:00:11.902Z,99690.83
2022-09-17T13:04:03.663Z,99684.56
2022-09-17T13:07:57.553Z,99681.94
2022-09-17T13:12:04.406Z,99684.69
2022-09-17T13:15:58.110Z,99680.54
2022-09-17T13:20:16.517Z,99673.95
2022-09-17T13:24:10.234Z,99683.84
2022-09-17T13:27:59.374Z,99693.95
2022-09-17T13:32:04.009Z,99711.36
2022-09-17T13:35:55.123Z,99706.58
2022-09-17T13:39:43.719Z,99706.30
2022-09-17T13:43:41.363Z,99707.90
2022-09-17T13:47:30.714Z,99706.16
2022-09-17T13:51:35.073Z,99701.11
2022-09-17T13:55:23.925Z,99687.34
2022-09-17T13:59:20.562Z,99680.18
2022-09-17T14:03:07.477Z,99677.81
2022-09-17T14:06:56.784Z,99678.14
2022-09-17T14:10:58.981Z,99673.89
2022-09-17T14:14:51.314Z,99670.84
2022-09-17T14:19:09.266Z,99668.05
2022-09-17T14:23:11.556Z,99669.89
2022-09-17T14:27:00.142Z,99668.17
2022-09-17T14:31:01.063Z,99662.06
2022-09-17T14:34:50.638Z,99668.90
2022-09-17T14:38:38.269Z,99675.29
2022-09-17T14:42:30.903Z,99667.44
2022-09-17T14:46:19.967Z,99663.77
2022-09-17T14:50:23.730Z,99664.82
2022-09-17T14:54:09.990Z,99660.16
2022-09-17T14:58:07.649Z,99658.23
2022-09-17T15:02:01.322Z,99663.06
2022-09-17T15:05:58.408Z,99666.10
2022-09-17T15:09:46.435Z,99671.72
2022-09-17T15:13:35.241Z,99674.07
2022-09-17T15:17:23.590Z,99677.38
2022-09-17T15:34:06.839Z,99683.00
2022-09-17T15:42:29.839Z,99693.71
2022-09-17T15:46:23.788Z,99686.34
2022-09-17T15:50:26.636Z,99693.66
2022-09-17T15:54:16.362Z,99695.05
2022-09-17T15:58:04.131Z,99696.64
2022-09-17T16:01:55.315Z,99700.50
2022-09-17T16:05:55.732Z,99697.13
2022-09-17T16:09:45.725Z,99692.59
2022-09-17T16:13:34.734Z,99695.46
2022-09-17T16:17:23.016Z,99706.52
2022-09-17T16:21:14.955Z,99704.67
2022-09-17T16:29:21.904Z,99726.76
2022-09-17T16:33:09.674Z,99733.20
2022-09-17T16:36:58.685Z,99743.70
2022-09-17T16:40:49.406Z,99750.14
2022-09-17T16:44:37.460Z,99753.92
2022-09-17T16:48:27.862Z,99760.76
2022-09-17T16:52:15.860Z,99760.37
2022-09-17T16:56:04.224Z,99755.58
2022-09-17T16:59:55.934Z,99759.61
2022-09-17T17:03:43.264Z,99763.89
2022-09-17T17:07:31.646Z,99774.31
2022-09-17T17:11:21.046Z,99765.14
2022-09-17T17:15:09.724Z,99764.95
2022-09-17T17:18:58.392Z,99768.08
2022-09-17T17:22:47.322Z,99771.80
2022-09-17T17:26:36.420Z,99775.21
2022-09-17T17:30:49.252Z,99777.45
2022-09-17T17:34:37.318Z,99774.60
2022-09-17T17:38:26.046Z,99782.60
2022-09-17T17:42:14.867Z,99785.50
2022-09-17T17:46:03.268Z,99791.59
2022-09-17T17:49:52.420Z,99789.29
2022-09-17T17:53:42.318Z,99790.02
2022-09-17T17:57:31.080Z,99790.29
2022-09-17T18:01:19.880Z,99790.69
2022-09-17T18:05:08.709Z,99792.10
2022-09-17T18:08:56.876Z,99793.27
2022-09-17T18:12:45.644Z,99796.00
2022-09-17T18:16:16.605Z,99792.16
2022-09-17T18:20:08.046Z,99793.13
2022-09-17T18:23:57.097Z,99793.33
2022-09-17T18:27:49.426Z,99788.53
2022-09-17T18:31:38.266Z,99790.67
2022-09-17T18:35:24.360Z,99801.61
2022-09-17T18:39:55.708Z,99802.31
2022-09-17T18:43:33.323Z,99805.05
2022-09-17T18:47:22.861Z,99796.81
2022-09-17T18:51:15.035Z,99799.59
2022-09-17T18:55:05.334Z,99801.48
2022-09-17T18:58:38.026Z,99803.70
2022-09-17T19:02:28.664Z,99804.98
2022-09-17T19:06:17.157Z,99806.41
2022-09-17T19:10:09.010Z,99800.91
2022-09-17T19:13:58.568Z,99797.35
2022-09-17T19:17:50.505Z,99800.21
2022-09-17T19:21:43.117Z,99804.11
2022-09-17T19:25:33.382Z,99804.77
2022-09-17T19:29:22.099Z,99803.39
2022-09-17T19:33:10.503Z,99806.47
2022-09-17T19:36:59.893Z,99801.22
2022-09-17T19:40:48.758Z,99790.98
2022-09-17T19:44:43.063Z,99778.52
2022-09-17T19:48:30.071Z,99777.73
2022-09-17T19:52:18.314Z,99775.20
2022-09-17T19:56:06.637Z,99784.98
2022-09-17T19:59:54.366Z,99787.34
2022-09-17T20:03:42.750Z,99794.11
2022-09-17T20:07:30.709Z,99793.49
2022-09-17T20:11:19.270Z,99792.92
2022-09-17T20:15:07.400Z,99793.89
2022-09-17T20:18:56.709Z,99800.50
2022-09-17T20:22:45.290Z,99804.98
2022-09-17T20:26:34.996Z,99815.58
2022-09-17T20:30:23.382Z,99816.82
2022-09-17T20:34:12.486Z,99827.52
2022-09-17T20:42:09.896Z,99840.02
2022-09-17T20:45:58.521Z,99843.55
2022-09-17T20:49:49.243Z,99842.36
2022-09-17T20:53:37.344Z,99845.71
2022-09-17T20:57:25.720Z,99839.55
2022-09-17T21:01:13.885Z,99847.83
2022-09-17T21:05:02.449Z,99846.00
2022-09-17T21:08:51.997Z,99847.59
2022-09-17T21:12:40.051Z,99847.70
2022-09-17T21:16:34.592Z,99848.99
2022-09-17T21:20:22.738Z,99842.77
2022-09-17T21:24:14.444Z,99840.70
2022-09-17T21:28:03.117Z,99838.63
2022-09-17T21:31:52.355Z,99838.80
2022-09-17T21:35:40.149Z,99840.20
2022-09-17T21:39:30.915Z,99845.50
2022-09-17T21:43:20.399Z,99842.96
2022-09-17T21:47:12.314Z,99845.42
2022-09-17T21:51:02.524Z,99843.55
2022-09-17T21:54:55.426Z,99847.30
2022-09-17T21:58:45.760Z,99844.52
2022-09-17T22:02:33.794Z,99847.95
2022-09-17T22:06:22.091Z,99857.89
2022-09-17T22:10:09.934Z,99862.28
2022-09-17T22:13:57.819Z,99859.21
2022-09-17T22:17:46.293Z,99855.58
2022-09-17T22:21:34.715Z,99858.33
2022-09-17T22:25:22.799Z,99852.59
2022-09-17T22:29:10.733Z,99850.92
2022-09-17T22:32:58.760Z,99843.42
2022-09-17T22:36:43.257Z,99837.23
2022-09-17T22:40:24.234Z,99829.05
2022-09-17T22:44:05.055Z,99821.66
2022-09-17T22:47:52.824Z,99819.97
2022-09-17T22:51:40.663Z,99819.53
2022-09-17T22:55:28.583Z,99812.14
2022-09-17T22:59:15.962Z,99812.69
2022-09-17T23:03:03.497Z,99817.82
2022-09-17T23:06:51.113Z,99814.31
2022-09-17T23:10:38.913Z,99812.92
2022-09-17T23:14:27.075Z,99806.55
2022-09-17T23:18:14.782Z,99801.06
2022-09-17T23:22:02.674Z,99806.36
2022-09-17T23:25:50.605Z,99811.19
2022-09-17T23:29:38.222Z,99808.15
2022-09-17T23:33:25.950Z,99805.13
2022-09-17T23:37:13.558Z,99807.25
2022-09-17T23:41:01.152Z,99809.90
2022-09-17T23:44:48.800Z,99805.98
2022-09-17T23:48:37.047Z,99804.52
2022-09-17T23:52:25.106Z,99799.45
2022-09-17T23:56:13.754Z,99799.57
